Time;durP1;ratioP1;P1;durP2;ratioP2;P2;SDS_P1;SDS_P2;PMS_P1;PMS_P2;Temp;Humidity;BMP_temperature;BMP_pressure;BME280_temperature;BME280_humidity;BME280_pressure;Samples;Min_cycle;Max_cycle;Signal;HPM_P1;HPM_P2
2024/01/07 00:01:30;;;;;;;27.02;15.05;;;;;;;2.93;100.00;101634.84;5034928;28;20033;-88
2024/01/07 00:03:56;;;;;;;24.10;14.70;;;;;;;2.85;100.00;101633.53;5017315;28;20025;-88
2024/01/07 00:06:21;;;;;;;24.90;14.20;;;;;;;2.60;100.00;101591.25;5034818;28;20424;-89
2024/01/07 00:08:47;;;;;;;22.58;14.15;;;;;;;2.86;100.00;101637.91;5034778;28;20075;-88
2024/01/07 00:11:13;;;;;;;23.63;14.32;;;;;;;2.85;100.00;101640.47;5017003;28;20377;-87
2024/01/07 00:13:38;;;;;;;24.67;14.23;;;;;;;2.57;100.00;101593.69;5016777;28;20052;-88
2024/01/07 00:16:09;;;;;;;21.88;13.85;;;;;;;2.67;100.00;101607.31;5016849;28;20033;-88
2024/01/07 00:18:35;;;;;;;23.63;15.23;;;;;;;2.84;100.00;101646.50;5018079;28;20057;-89
2024/01/07 00:21:00;;;;;;;22.02;13.40;;;;;;;2.58;100.00;101606.81;5016823;28;20060;-88
2024/01/07 00:23:33;;;;;;;24.80;14.55;;;;;;;2.51;100.00;101595.13;5034521;28;20030;-88
2024/01/07 00:25:58;;;;;;;24.17;14.45;;;;;;;2.49;100.00;101599.38;5034533;28;20082;-88
2024/01/07 00:28:24;;;;;;;25.58;14.90;;;;;;;2.71;100.00;101626.66;5016881;28;20116;-89
2024/01/07 00:30:49;;;;;;;20.05;13.60;;;;;;;2.62;100.00;101613.13;5034378;28;20032;-88
2024/01/07 00:33:17;;;;;;;22.92;13.32;;;;;;;2.53;100.00;101596.94;5016594;28;20491;-88
2024/01/07 00:35:43;;;;;;;20.77;13.25;;;;;;;2.44;100.00;101594.72;5016599;28;20068;-88
2024/01/07 00:38:08;;;;;;;21.02;13.25;;;;;;;2.72;100.00;101651.94;5034019;28;20104;-88
2024/01/07 00:40:33;;;;;;;21.58;13.65;;;;;;;2.45;100.00;101612.19;5034015;28;20381;-89
2024/01/07 00:43:01;;;;;;;18.45;12.35;;;;;;;2.28;100.00;101602.50;5033862;28;20017;-88
2024/01/07 00:45:29;;;;;;;17.80;12.05;;;;;;;2.67;100.00;101677.78;5016280;28;20374;-88
2024/01/07 00:47:54;;;;;;;19.08;12.40;;;;;;;2.18;100.00;101596.75;5034265;28;20036;-88
2024/01/07 00:50:20;;;;;;;18.35;12.02;;;;;;;2.59;100.00;101683.38;5034028;28;20029;-89
2024/01/07 00:52:46;;;;;;;19.40;12.85;;;;;;;2.27;100.00;101627.69;5015882;28;20040;-89
2024/01/07 00:55:12;;;;;;;19.52;12.93;;;;;;;2.13;100.00;101612.97;5033661;28;20148;-88
2024/01/07 00:57:37;;;;;;;17.27;12.15;;;;;;;2.15;100.00;101613.97;5034112;28;20040;-88
2024/01/07 01:00:09;;;;;;;19.00;12.20;;;;;;;2.38;100.00;101651.75;5033647;28;20029;-88
2024/01/07 01:02:35;;;;;;;19.33;12.77;;;;;;;2.59;100.00;101686.88;5033603;28;20539;-89
2024/01/07 01:05:04;;;;;;;17.38;12.07;;;;;;;2.48;100.00;101670.63;5033754;28;20112;-88
2024/01/07 01:07:32;;;;;;;20.85;13.88;;;;;;;2.26;100.00;101651.94;5033727;28;20040;-88
2024/01/07 01:10:00;;;;;;;21.88;13.45;;;;;;;2.12;100.00;101617.28;5033224;28;20038;-88
2024/01/07 01:12:26;;;;;;;20.95;13.30;;;;;;;2.13;100.00;101624.28;5015949;28;20025;-88
2024/01/07 01:14:51;;;;;;;20.42;12.85;;;;;;;2.31;100.00;101653.09;5015794;28;20021;-88
2024/01/07 01:17:19;;;;;;;19.85;12.57;;;;;;;2.46;100.00;101672.25;5033536;28;20029;-88
2024/01/07 01:19:47;;;;;;;22.58;13.15;;;;;;;2.34;100.00;101648.06;5015766;28;20017;-89
2024/01/07 01:22:12;;;;;;;21.35;13.40;;;;;;;2.45;100.00;101661.75;5015410;28;20056;-89
2024/01/07 01:24:40;;;;;;;22.10;13.75;;;;;;;2.31;100.00;101631.34;5015608;28;20037;-89
2024/01/07 01:27:08;;;;;;;20.83;13.70;;;;;;;2.36;100.00;101646.47;5033662;28;20484;-89
2024/01/07 01:29:33;;;;;;;24.40;14.13;;;;;;;2.23;100.00;101637.06;5033204;28;20063;-89
2024/01/07 01:32:09;;;;;;;25.48;15.10;;;;;;;2.22;100.00;101643.03;5033364;28;20056;-88
2024/01/07 01:34:36;;;;;;;24.65;15.02;;;;;;;2.56;100.00;101720.59;5015561;28;20057;-89
2024/01/07 01:37:02;;;;;;;26.80;15.38;;;;;;;2.25;100.00;101666.69;5033292;28;20369;-89
2024/01/07 01:39:29;;;;;;;25.02;15.45;;;;;;;2.07;100.00;101642.19;5032815;28;20131;-88
2024/01/07 01:41:55;;;;;;;28.38;15.85;;;;;;;2.36;100.00;101688.19;5032649;28;20108;-88
2024/01/07 01:44:23;;;;;;;29.42;15.88;;;;;;;2.42;100.00;101713.72;5032987;28;20416;-89
2024/01/07 01:46:51;;;;;;;30.90;18.10;;;;;;;1.97;100.00;101648.59;5032816;28;20018;-88
2024/01/07 01:49:17;;;;;;;34.58;18.17;;;;;;;2.00;100.00;101666.09;5015403;28;20112;-89
2024/01/07 01:51:42;;;;;;;33.50;17.67;;;;;;;2.03;100.00;101663.66;4999428;28;20116;-89
2024/01/07 01:54:18;;;;;;;31.48;17.98;;;;;;;2.46;100.00;101731.34;5033163;28;20063;-89
2024/01/07 01:56:43;;;;;;;29.25;16.15;;;;;;;1.99;100.00;101652.16;5015279;28;20381;-89
2024/01/07 01:59:09;;;;;;;31.48;17.52;;;;;;;2.29;100.00;101708.59;5015319;28;20025;-89
2024/01/07 02:01:35;;;;;;;30.15;17.90;;;;;;;2.19;100.00;101708.09;5015396;28;20022;-89
2024/01/07 02:04:00;;;;;;;29.85;17.13;;;;;;;2.06;100.00;101694.25;5017378;28;20029;-89
2024/01/07 02:06:26;;;;;;;28.85;17.00;;;;;;;2.21;100.00;101719.47;5037120;28;20033;-88
2024/01/07 02:08:51;;;;;;;29.27;15.95;;;;;;;1.99;100.00;101683.44;5019296;28;20057;-89
2024/01/07 02:11:19;;;;;;;30.02;15.93;;;;;;;1.97;100.00;101689.38;5018965;28;20350;-88
2024/01/07 02:13:44;;;;;;;33.20;17.75;;;;;;;2.10;100.00;101709.22;5036912;28;20025;-88
2024/01/07 02:16:10;;;;;;;31.20;16.52;;;;;;;2.19;100.00;101721.13;5019445;28;20025;-88
2024/01/07 02:18:36;;;;;;;31.70;16.83;;;;;;;2.46;100.00;101741.78;5036494;28;20025;-89
2024/01/07 02:21:02;;;;;;;28.20;16.77;;;;;;;2.29;100.00;101709.50;5019933;28;20112;-88
2024/01/07 02:23:27;;;;;;;31.63;15.65;;;;;;;2.40;100.00;101741.41;5037153;28;20131;-88
2024/01/07 02:25:53;;;;;;;32.53;17.17;;;;;;;2.51;100.00;101756.88;5037179;28;20044;-88
2024/01/07 02:28:18;;;;;;;30.27;16.45;;;;;;;2.30;100.00;101724.34;5019262;28;20079;-88
2024/01/07 02:30:46;;;;;;;33.28;17.63;;;;;;;2.41;100.00;101751.94;5019362;28;20052;-88
2024/01/07 02:33:12;;;;;;;30.73;17.10;;;;;;;2.39;100.00;101757.88;5037152;28;20458;-88
2024/01/07 02:35:37;;;;;;;32.63;17.52;;;;;;;2.32;100.00;101742.69;5002865;28;20033;-88
2024/01/07 02:38:05;;;;;;;34.97;17.98;;;;;;;2.45;100.00;101766.97;5036764;28;20133;-89
2024/01/07 02:40:30;;;;;;;32.65;18.05;;;;;;;2.43;100.00;101749.41;5019067;28;20031;-88
2024/01/07 02:42:56;;;;;;;33.15;17.13;;;;;;;2.48;100.00;101763.63;5019174;28;20040;-88
2024/01/07 02:45:22;;;;;;;29.85;16.88;;;;;;;2.28;100.00;101725.97;5018889;28;20057;-88
2024/01/07 02:47:47;;;;;;;34.22;17.88;;;;;;;2.41;100.00;101749.34;5018986;28;20025;-88
2024/01/07 02:50:13;;;;;;;36.72;19.45;;;;;;;2.25;100.00;101734.50;5002805;28;20041;-88
2024/01/07 02:52:38;;;;;;;34.95;18.38;;;;;;;2.43;100.00;101772.88;5019044;28;20029;-88
2024/01/07 02:55:04;;;;;;;32.22;18.33;;;;;;;2.37;100.00;101770.84;5036675;28;20025;-88
2024/01/07 02:57:30;;;;;;;38.63;20.35;;;;;;;2.38;100.00;101774.34;5019577;28;20069;-88
2024/01/07 02:59:55;;;;;;;39.50;19.70;;;;;;;2.36;100.00;101770.75;5019842;28;20088;-88
2024/01/07 03:02:20;;;;;;;33.53;17.60;;;;;;;2.43;100.00;101780.72;5036702;28;20116;-89
2024/01/07 03:04:46;;;;;;;36.38;18.77;;;;;;;2.40;100.00;101772.69;5036619;28;20029;-89
2024/01/07 03:07:11;;;;;;;35.97;20.10;;;;;;;2.44;100.00;101786.03;5018863;28;20033;-88
2024/01/07 03:09:39;;;;;;;38.15;20.00;;;;;;;2.47;100.00;101786.19;5018611;28;20081;-88
2024/01/07 03:12:05;;;;;;;41.83;20.67;;;;;;;2.28;100.00;101758.97;5018652;28;20488;-88
2024/01/07 03:14:30;;;;;;;41.35;19.55;;;;;;;2.46;100.00;101788.72;5018425;28;20108;-88
2024/01/07 03:16:56;;;;;;;41.42;20.25;;;;;;;2.32;100.00;101769.66;5018540;28;20026;-89
2024/01/07 03:19:21;;;;;;;36.30;19.13;;;;;;;2.30;100.00;101766.06;5017897;28;20095;-88
2024/01/07 03:21:48;;;;;;;43.58;20.10;;;;;;;2.41;100.00;101788.47;5035641;28;20069;-89
2024/01/07 03:24:14;;;;;;;38.78;19.40;;;;;;;2.40;100.00;101780.53;5017873;28;20462;-88
2024/01/07 03:26:39;;;;;;;39.83;20.13;;;;;;;2.40;100.00;101781.47;5017788;28;20090;-88
2024/01/07 03:29:04;;;;;;;38.40;20.55;;;;;;;2.51;100.00;101803.84;5035526;28;20021;-88
2024/01/07 03:31:30;;;;;;;36.78;19.02;;;;;;;2.47;100.00;101795.75;5001463;28;20072;-89
2024/01/07 03:33:56;;;;;;;36.20;18.73;;;;;;;2.46;100.00;101805.28;5035186;28;20029;-88
2024/01/07 03:36:21;;;;;;;38.85;20.02;;;;;;;2.41;100.00;101793.69;5017514;28;20147;-88
2024/01/07 03:38:50;;;;;;;38.30;19.08;;;;;;;2.48;100.00;101797.53;5017267;28;20112;-89
2024/01/07 03:41:19;;;;;;;32.47;18.95;;;;;;;2.42;100.00;101798.06;5017362;28;20049;-88
2024/01/07 03:43:49;;;;;;;29.42;17.45;;;;;;;2.45;100.00;101810.41;5035303;28;20033;-89
2024/01/07 03:46:15;;;;;;;32.05;17.63;;;;;;;2.42;100.00;101807.63;5017859;28;20055;-88
2024/01/07 03:48:41;;;;;;;29.60;17.15;;;;;;;2.38;100.00;101803.91;5017655;28;20143;-88
2024/01/07 03:51:07;;;;;;;31.30;17.80;;;;;;;2.46;100.00;101814.81;5017338;28;20048;-88
2024/01/07 03:53:33;;;;;;;27.83;17.30;;;;;;;2.45;100.00;101819.13;5017621;28;20113;-88
2024/01/07 03:55:58;;;;;;;29.63;17.30;;;;;;;2.13;100.00;101754.63;5017560;28;20032;-88
2024/01/07 03:58:23;;;;;;;34.83;18.55;;;;;;;2.48;100.00;101813.19;5035004;28;20030;-88
2024/01/07 04:00:49;;;;;;;30.00;16.10;;;;;;;2.42;100.00;101816.34;5035244;28;20026;-88
2024/01/07 04:03:17;;;;;;;31.08;17.48;;;;;;;2.39;100.00;101818.75;5034660;28;20029;-88
2024/01/07 04:05:45;;;;;;;30.08;17.05;;;;;;;2.41;100.00;101818.88;5017222;28;20034;-88
2024/01/07 04:08:11;;;;;;;29.27;17.13;;;;;;;2.38;100.00;101823.91;5034911;28;20022;-88
2024/01/07 04:10:37;;;;;;;31.38;16.98;;;;;;;2.29;100.00;101815.53;5034625;28;20029;-88
2024/01/07 04:13:02;;;;;;;27.40;16.63;;;;;;;2.36;100.00;101823.81;5034774;28;20074;-88
2024/01/07 04:15:27;;;;;;;29.42;16.75;;;;;;;2.34;100.00;101833.25;5017049;28;20025;-88
2024/01/07 04:17:53;;;;;;;31.80;17.35;;;;;;;2.34;100.00;101829.72;5016732;28;20037;-88
2024/01/07 04:20:18;;;;;;;27.10;16.55;;;;;;;2.25;100.00;101830.97;5000719;28;20067;-88
2024/01/07 04:22:44;;;;;;;30.23;15.60;;;;;;;2.25;100.00;101828.38;4984297;28;20040;-88
2024/01/07 04:25:10;;;;;;;29.02;16.25;;;;;;;2.21;100.00;101844.63;5034190;28;20036;-88
2024/01/07 04:27:36;;;;;;;32.33;17.85;;;;;;;2.02;100.00;101826.09;5033826;28;20040;-88
2024/01/07 04:30:02;;;;;;;29.70;16.38;;;;;;;2.16;100.00;101850.41;5034411;28;20033;-88
2024/01/07 04:32:27;;;;;;;28.27;16.65;;;;;;;2.13;100.00;101843.28;5034139;28;20112;-88
2024/01/07 04:34:53;;;;;;;26.50;15.70;;;;;;;2.12;100.00;101831.06;5034220;28;20117;-88
2024/01/07 04:37:18;;;;;;;25.23;14.93;;;;;;;2.20;100.00;101855.00;5034083;28;20088;-88
2024/01/07 04:39:44;;;;;;;24.77;14.63;;;;;;;1.96;100.00;101821.38;5016360;28;20039;-88
2024/01/07 04:42:09;;;;;;;25.70;14.05;;;;;;;2.03;100.00;101830.50;5033939;28;20033;-89
2024/01/07 04:44:34;;;;;;;23.02;14.93;;;;;;;2.23;100.00;101863.91;5016386;28;20029;-88
2024/01/07 04:47:00;;;;;;;23.05;13.02;;;;;;;2.16;100.00;101846.06;5016456;28;20055;-88
2024/01/07 04:49:25;;;;;;;22.30;13.75;;;;;;;2.25;100.00;101866.59;5016693;28;20080;-89
2024/01/07 04:51:50;;;;;;;22.55;13.18;;;;;;;2.21;100.00;101868.09;5016655;28;20037;-89
2024/01/07 04:54:16;;;;;;;24.25;14.57;;;;;;;2.20;100.00;101874.13;5016073;28;20433;-89
2024/01/07 04:56:41;;;;;;;21.50;13.50;;;;;;;2.21;100.00;101888.97;4999871;28;20025;-88
2024/01/07 04:59:07;;;;;;;20.02;12.60;;;;;;;2.16;100.00;101881.69;5033933;28;20037;-88
2024/01/07 05:01:33;;;;;;;20.95;12.20;;;;;;;2.15;100.00;101886.00;5016014;28;20037;-89
2024/01/07 05:03:59;;;;;;;20.27;12.07;;;;;;;2.00;100.00;101849.44;5033735;28;20524;-89
2024/01/07 05:06:24;;;;;;;21.92;12.40;;;;;;;2.23;100.00;101886.47;5033775;28;20029;-89
2024/01/07 05:08:49;;;;;;;15.73;10.52;;;;;;;2.22;100.00;101884.66;5016244;28;20042;-89
2024/01/07 05:11:17;;;;;;;16.67;10.77;;;;;;;2.17;100.00;101886.97;5033154;28;20026;-88
2024/01/07 05:13:42;;;;;;;15.50;9.77;;;;;;;2.01;100.00;101865.97;5033612;28;20036;-89
2024/01/07 05:16:07;;;;;;;14.02;9.23;;;;;;;2.14;100.00;101885.88;5033550;28;20366;-88
2024/01/07 05:18:33;;;;;;;17.45;10.02;;;;;;;2.14;100.00;101889.41;5015907;28;20454;-89
2024/01/07 05:20:58;;;;;;;14.77;10.15;;;;;;;1.95;100.00;101870.84;5015647;28;20037;-89
2024/01/07 05:23:24;;;;;;;16.52;10.55;;;;;;;2.12;100.00;101895.34;5015868;28;20022;-89
2024/01/07 05:25:49;;;;;;;14.00;9.90;;;;;;;2.09;100.00;101898.63;5033455;28;20036;-88
2024/01/07 05:28:18;;;;;;;15.32;10.50;;;;;;;2.13;100.00;101908.44;5015733;28;20034;-89
2024/01/07 05:30:44;;;;;;;16.10;10.52;;;;;;;2.02;100.00;101883.44;5015704;28;20527;-89
2024/01/07 05:33:10;;;;;;;15.23;10.10;;;;;;;1.91;100.00;101876.66;5033444;28;20104;-89
2024/01/07 05:35:35;;;;;;;16.67;9.82;;;;;;;2.09;100.00;101914.28;5015523;28;20434;-89
2024/01/07 05:38:00;;;;;;;15.57;10.40;;;;;;;2.07;100.00;101912.41;5015341;28;20083;-89
2024/01/07 05:40:26;;;;;;;16.77;9.75;;;;;;;2.04;100.00;101925.25;4999023;28;20125;-89
2024/01/07 05:42:51;;;;;;;14.23;9.40;;;;;;;1.96;100.00;101929.97;5015686;28;20473;-89
2024/01/07 05:45:20;;;;;;;15.02;10.00;;;;;;;1.90;100.00;101916.56;5015452;28;20029;-89
2024/01/07 05:47:45;;;;;;;15.70;9.57;;;;;;;2.00;100.00;101930.25;5033280;28;20037;-90
2024/01/07 05:50:11;;;;;;;13.90;9.27;;;;;;;1.72;100.00;101895.47;5033307;28;20079;-89
2024/01/07 05:52:36;;;;;;;14.32;9.95;;;;;;;1.93;100.00;101935.91;5015490;28;20052;-89
2024/01/07 05:55:02;;;;;;;15.18;9.50;;;;;;;1.70;100.00;101897.94;5032806;28;20033;-89
2024/01/07 05:57:28;;;;;;;13.88;8.82;;;;;;;1.89;100.00;101946.03;5015415;28;20033;-89
2024/01/07 05:59:54;;;;;;;14.05;9.55;;;;;;;1.87;100.00;101934.59;5033339;28;20381;-88
2024/01/07 06:02:19;;;;;;;14.65;9.73;;;;;;;1.89;100.00;101940.84;5015497;28;20029;-88
2024/01/07 06:04:45;;;;;;;14.00;9.10;;;;;;;1.95;100.00;101949.03;5015379;28;20030;-89
2024/01/07 06:07:10;;;;;;;13.30;9.32;;;;;;;1.93;100.00;101956.75;4998755;28;20525;-88
2024/01/07 06:09:39;;;;;;;13.63;9.18;;;;;;;1.94;100.00;101949.84;5015395;28;20041;-88
2024/01/07 06:12:05;;;;;;;13.82;8.88;;;;;;;1.87;100.00;101948.53;5015081;28;20039;-88
2024/01/07 06:14:30;;;;;;;13.77;8.63;;;;;;;1.73;100.00;101938.94;5015134;28;20037;-88
2024/01/07 06:16:55;;;;;;;12.15;8.25;;;;;;;1.78;100.00;101953.16;5015077;28;20104;-87
2024/01/07 06:19:21;;;;;;;12.82;8.68;;;;;;;1.39;100.00;101908.13;5015479;28;20577;-88
2024/01/07 06:21:46;;;;;;;13.95;9.02;;;;;;;1.78;100.00;101983.53;5015282;28;20029;-88
2024/01/07 06:24:12;;;;;;;11.05;8.20;;;;;;;1.79;100.00;101977.50;5015089;28;20099;-88
2024/01/07 06:26:37;;;;;;;15.25;8.50;;;;;;;1.75;100.00;101963.38;5015480;28;20038;-88
2024/01/07 06:29:09;;;;;;;15.85;9.60;;;;;;;1.70;100.00;101955.28;5015047;28;20050;-89
2024/01/07 06:31:34;;;;;;;13.52;9.52;;;;;;;1.85;100.00;101990.94;5015228;28;20041;-88
2024/01/07 06:34:00;;;;;;;12.85;9.40;;;;;;;1.84;100.00;101992.66;5015194;28;20124;-88
2024/01/07 06:36:26;;;;;;;13.55;9.20;;;;;;;1.83;100.00;101998.66;5014975;28;20040;-89
2024/01/07 06:38:51;;;;;;;16.52;10.20;;;;;;;1.77;100.00;101993.06;5034951;28;20457;-89
2024/01/07 06:41:19;;;;;;;13.40;9.25;;;;;;;1.81;100.00;102002.88;5034425;28;20068;-88
2024/01/07 06:43:44;;;;;;;13.82;10.05;;;;;;;1.56;100.00;101965.63;5018500;28;20029;-88
2024/01/07 06:46:10;;;;;;;14.05;9.52;;;;;;;1.79;100.00;102014.88;5052240;28;20037;-88
2024/01/07 06:48:35;;;;;;;13.90;9.35;;;;;;;1.79;100.00;102016.59;5052311;28;20021;-88
2024/01/07 06:51:01;;;;;;;15.30;9.77;;;;;;;1.79;100.00;102021.81;5038029;28;20043;-87
2024/01/07 06:53:26;;;;;;;13.10;9.23;;;;;;;1.80;100.00;102021.94;5056163;28;20108;-88
2024/01/07 06:55:51;;;;;;;14.32;9.88;;;;;;;1.83;100.00;102032.53;5021839;28;20108;-88
2024/01/07 06:58:20;;;;;;;13.02;9.38;;;;;;;1.64;100.00;102000.88;5055795;28;20060;-87
2024/01/07 07:00:47;;;;;;;14.68;10.02;;;;;;;1.68;100.00;102008.09;5005728;28;20025;-87
2024/01/07 07:03:13;;;;;;;14.65;9.73;;;;;;;1.83;100.00;102032.53;5038570;28;20060;-87
2024/01/07 07:05:38;;;;;;;15.13;9.93;;;;;;;1.70;100.00;102024.72;5037930;28;20059;-87
2024/01/07 07:08:06;;;;;;;12.93;9.32;;;;;;;1.29;100.00;101959.53;5021484;28;20373;-87
2024/01/07 07:10:32;;;;;;;15.35;9.30;;;;;;;1.66;100.00;102030.53;5038050;28;20029;-87
2024/01/07 07:13:00;;;;;;;14.38;10.02;;;;;;;1.66;100.00;102030.53;5055817;28;20448;-87
2024/01/07 07:15:27;;;;;;;14.50;9.25;;;;;;;1.73;100.00;102053.59;5038332;28;20115;-87
2024/01/07 07:17:53;;;;;;;15.43;9.57;;;;;;;1.74;100.00;102058.88;5038393;28;20025;-89
2024/01/07 07:20:18;;;;;;;16.50;10.80;;;;;;;1.68;100.00;102058.50;5037729;28;20084;-88
2024/01/07 07:22:43;;;;;;;15.13;9.77;;;;;;;1.62;100.00;102042.44;5055593;28;20112;-88
2024/01/07 07:25:09;;;;;;;16.20;9.82;;;;;;;1.67;100.00;102067.13;5055497;28;20373;-88
2024/01/07 07:27:34;;;;;;;14.38;10.05;;;;;;;1.60;100.00;102064.00;5055607;28;20074;-87
2024/01/07 07:29:59;;;;;;;15.82;10.60;;;;;;;1.61;100.00;102077.13;5021206;28;20021;-88
2024/01/07 07:32:25;;;;;;;14.85;10.25;;;;;;;1.53;100.00;102052.25;5021233;28;20059;-88
2024/01/07 07:34:50;;;;;;;18.20;10.35;;;;;;;1.58;100.00;102082.13;5055429;28;20061;-88
2024/01/07 07:37:16;;;;;;;14.13;9.90;;;;;;;1.61;100.00;102086.66;5021199;28;20043;-88
2024/01/07 07:39:41;;;;;;;15.80;9.95;;;;;;;1.61;100.00;102089.25;5020581;28;20052;-88
2024/01/07 07:42:06;;;;;;;16.30;9.77;;;;;;;1.49;100.00;102071.09;5037243;28;20462;-87
2024/01/07 07:44:32;;;;;;;15.75;10.32;;;;;;;1.56;100.00;102099.38;5055004;28;20515;-88
2024/01/07 07:46:57;;;;;;;13.80;9.90;;;;;;;1.29;100.00;102063.66;5037229;28;20036;-87
2024/01/07 07:49:22;;;;;;;14.82;9.95;;;;;;;1.46;100.00;102121.28;5037433;28;20519;-87
2024/01/07 07:51:48;;;;;;;16.77;9.98;;;;;;;1.18;100.00;102071.63;5021834;28;20127;-88
2024/01/07 07:54:13;;;;;;;16.92;10.02;;;;;;;1.30;100.00;102107.13;5021203;28;20458;-88
2024/01/07 07:56:39;;;;;;;14.30;9.65;;;;;;;1.31;100.00;102109.81;5055370;28;20443;-87
2024/01/07 07:59:04;;;;;;;16.30;10.38;;;;;;;1.37;100.00;102128.47;5055262;28;20033;-88
2024/01/07 08:01:30;;;;;;;16.20;9.50;;;;;;;1.33;100.00;102136.88;5036622;28;20040;-87
2024/01/07 08:03:58;;;;;;;17.95;10.50;;;;;;;1.26;100.00;102116.41;5055275;28;20036;-88
2024/01/07 08:06:23;;;;;;;14.38;9.82;;;;;;;1.37;100.00;102144.09;5055453;28;20132;-88
2024/01/07 08:08:51;;;;;;;17.30;10.63;;;;;;;1.42;100.00;102136.59;5037476;28;20457;-88
2024/01/07 08:11:16;;;;;;;17.20;10.57;;;;;;;1.34;100.00;102143.88;5037019;28;20370;-88
2024/01/07 08:13:41;;;;;;;16.40;10.10;;;;;;;1.30;100.00;102143.56;5037080;28;20033;-87
2024/01/07 08:16:07;;;;;;;22.52;13.52;;;;;;;1.39;100.00;102147.72;5037612;28;20529;-87
2024/01/07 08:18:32;;;;;;;16.83;10.80;;;;;;;1.45;100.00;102155.03;5020402;28;20048;-87
2024/01/07 08:20:58;;;;;;;16.02;10.82;;;;;;;1.28;100.00;102119.13;5054607;28;20034;-87
2024/01/07 08:23:24;;;;;;;15.13;9.55;;;;;;;1.43;100.00;102136.69;5054324;28;20036;-87
2024/01/07 08:25:52;;;;;;;13.88;9.43;;;;;;;1.46;100.00;102144.72;5054098;28;20095;-88
2024/01/07 08:28:18;;;;;;;16.70;9.95;;;;;;;1.34;100.00;102135.19;5054521;28;20033;-87
2024/01/07 08:30:44;;;;;;;16.45;9.90;;;;;;;1.50;100.00;102171.91;5054659;28;20112;-87
2024/01/07 08:33:10;;;;;;;14.57;9.88;;;;;;;1.41;100.00;102166.03;5054428;28;20025;-87
2024/01/07 08:35:38;;;;;;;16.23;10.50;;;;;;;1.38;100.00;102166.75;5039170;28;20032;-87
2024/01/07 08:38:04;;;;;;;13.65;9.07;;;;;;;1.47;100.00;102182.09;5058103;28;20120;-87
2024/01/07 08:40:30;;;;;;;15.38;9.52;;;;;;;1.44;100.00;102168.84;5055576;28;20025;-87
2024/01/07 08:42:55;;;;;;;14.38;9.43;;;;;;;1.49;100.00;102180.47;5039599;28;20028;-87
2024/01/07 08:45:21;;;;;;;15.88;9.73;;;;;;;1.35;100.00;102160.41;5038886;28;20060;-87
2024/01/07 08:47:47;;;;;;;16.60;9.68;;;;;;;1.52;100.00;102191.13;5056040;28;20087;-88
2024/01/07 08:50:12;;;;;;;16.92;9.90;;;;;;;1.36;100.00;102168.31;5021751;28;20124;-86
2024/01/07 08:52:38;;;;;;;15.40;9.60;;;;;;;1.38;100.00;102165.84;5057491;28;20063;-87
2024/01/07 08:55:05;;;;;;;13.63;8.98;;;;;;;1.52;100.00;102195.44;5039277;28;20039;-87
2024/01/07 08:57:31;;;;;;;13.20;8.88;;;;;;;1.57;100.00;102194.03;5042400;28;20040;-87
2024/01/07 08:59:56;;;;;;;14.48;9.68;;;;;;;1.61;100.00;102193.44;5040551;28;20068;-86
2024/01/07 09:02:22;;;;;;;14.35;9.10;;;;;;;1.56;99.29;102206.16;5059616;28;20467;-87
2024/01/07 09:04:47;;;;;;;13.23;8.32;;;;;;;1.49;100.00;102204.81;5045424;28;20036;-87
2024/01/07 09:07:16;;;;;;;12.70;9.10;;;;;;;1.53;99.26;102215.47;5064459;28;20368;-88
2024/01/07 09:09:41;;;;;;;15.38;9.00;;;;;;;1.44;100.00;102207.91;5047247;28;20034;-88
2024/01/07 09:12:07;;;;;;;14.45;8.77;;;;;;;1.54;99.47;102217.25;5059803;28;20029;-88
2024/01/07 09:14:32;;;;;;;12.32;8.40;;;;;;;1.52;99.09;102234.50;5026720;28;20040;-89
2024/01/07 09:16:58;;;;;;;15.38;9.13;;;;;;;1.44;99.29;102216.63;5043851;28;20029;-89
2024/01/07 09:19:23;;;;;;;16.85;9.40;;;;;;;1.43;98.72;102237.38;5043737;28;20029;-90
2024/01/07 09:21:49;;;;;;;16.20;9.40;;;;;;;1.37;99.67;102230.03;5060143;28;20155;-88
2024/01/07 09:24:14;;;;;;;15.40;9.40;;;;;;;1.34;99.64;102216.81;5041937;28;20037;-89
2024/01/07 09:26:40;;;;;;;11.73;8.18;;;;;;;1.25;99.82;102209.25;5062145;28;20056;-90
2024/01/07 09:29:05;;;;;;;13.35;8.25;;;;;;;1.42;99.71;102249.50;5041913;28;20025;-88
2024/01/07 09:31:30;;;;;;;12.07;8.52;;;;;;;1.30;99.99;102226.91;5023641;28;20028;-89
2024/01/07 09:33:56;;;;;;;18.98;11.25;;;;;;;1.47;99.73;102255.91;5024177;28;20056;-89
2024/01/07 09:36:21;;;;;;;13.20;8.68;;;;;;;1.50;99.86;102263.06;5057330;28;20425;-89
2024/01/07 09:38:47;;;;;;;11.65;8.13;;;;;;;1.48;99.26;102259.44;5057819;28;20059;-88
2024/01/07 09:41:13;;;;;;;11.10;8.02;;;;;;;1.39;99.98;102277.03;5038932;28;20108;-88
2024/01/07 09:43:38;;;;;;;11.18;7.93;;;;;;;1.21;100.00;102250.59;5060028;28;20350;-88
2024/01/07 09:46:06;;;;;;;12.05;7.97;;;;;;;1.27;100.00;102278.75;5021895;28;20029;-88
2024/01/07 09:48:32;;;;;;;11.50;8.13;;;;;;;1.12;99.67;102255.16;5038628;28;20161;-88
2024/01/07 09:50:58;;;;;;;10.20;7.63;;;;;;;1.21;99.29;102274.03;5039312;28;20473;-87
2024/01/07 09:53:28;;;;;;;10.68;7.40;;;;;;;1.00;99.21;102250.84;5060932;28;20445;-89
2024/01/07 09:56:14;;;;;;;11.38;7.85;;;;;;;1.05;99.44;102268.50;5058861;28;20033;-89
2024/01/07 09:58:42;;;;;;;9.95;7.22;;;;;;;1.08;99.25;102285.25;5053611;28;20032;-88
2024/01/07 10:01:10;;;;;;;10.65;7.78;;;;;;;0.99;100.00;102269.88;5054122;28;20453;-91
2024/01/07 10:03:38;;;;;;;11.25;7.72;;;;;;;1.11;100.00;102285.44;5052918;28;20032;-89
2024/01/07 10:06:03;;;;;;;11.07;7.13;;;;;;;1.14;99.47;102276.97;5036572;28;20033;-90
2024/01/07 10:08:29;;;;;;;11.10;7.70;;;;;;;1.18;99.06;102290.31;5019351;28;20036;-92
2024/01/07 10:10:54;;;;;;;9.88;7.22;;;;;;;1.19;99.40;102297.31;5018459;28;20511;-90
2024/01/07 10:13:22;;;;;;;11.25;8.20;;;;;;;1.13;99.40;102299.50;5018933;28;20029;-91
2024/01/07 10:15:50;;;;;;;12.90;8.65;;;;;;;1.09;98.62;102289.66;5035450;28;20037;-91
2024/01/07 10:18:16;;;;;;;11.02;7.75;;;;;;;1.13;99.23;102309.00;5019140;28;20082;-90
2024/01/07 10:20:41;;;;;;;9.95;7.10;;;;;;;1.06;98.64;102297.22;5034793;28;20119;-92
2024/01/07 10:23:07;;;;;;;10.82;8.07;;;;;;;1.00;98.91;102286.41;5002190;28;20059;-90
2024/01/07 10:25:36;;;;;;;11.10;7.90;;;;;;;1.16;98.87;102317.06;5021474;28;20389;-88
2024/01/07 10:28:05;;;;;;;11.10;7.95;;;;;;;1.04;98.57;102283.22;5022562;28;20057;-92
2024/01/07 10:30:30;;;;;;;12.10;7.30;;;;;;;1.16;98.86;102291.91;5058604;28;20025;-92
2024/01/07 10:32:58;;;;;;;12.48;8.13;;;;;;;1.35;97.80;102314.94;5044434;28;20028;-91
2024/01/07 10:35:27;;;;;;;11.63;8.45;;;;;;;1.36;97.76;102318.47;5058722;28;20025;-92
2024/01/07 10:37:53;;;;;;;12.27;8.02;;;;;;;1.39;97.45;102318.69;5059223;28;20041;-88
2024/01/07 10:40:18;;;;;;;10.65;8.10;;;;;;;1.35;97.29;102330.56;5026263;28;20090;-92
2024/01/07 10:42:44;;;;;;;11.82;7.65;;;;;;;1.29;97.62;102318.84;5025844;28;20032;-95
2024/01/07 10:45:10;;;;;;;10.50;7.07;;;;;;;1.27;97.87;102308.28;5060526;28;20029;-95
2024/01/07 10:47:36;;;;;;;16.48;10.00;;;;;;;1.31;98.67;102317.22;5036207;28;20105;-95
2024/01/07 10:50:02;;;;;;;16.08;8.25;;;;;;;1.38;98.80;102315.19;5030182;28;20096;-96
2024/01/07 10:52:28;;;;;;;13.68;8.80;;;;;;;1.44;97.80;102326.03;5060320;28;20485;-95
2024/01/07 10:55:00;;;;;;;17.73;12.43;;;;;;;1.18;98.02;102263.38;5062085;28;20040;-96
2024/01/07 10:57:40;;;;;;;27.27;20.07;;;;;;;1.55;98.44;102321.59;5045187;28;20025;-96
2024/01/07 11:00:07;;;;;;;14.32;10.38;;;;;;;1.57;98.67;102314.78;5057327;28;20074;-96
2024/01/07 11:02:44;;;;;;;13.60;9.20;;;;;;;1.58;98.29;102318.28;5040737;28;20397;-93
2024/01/07 11:05:36;;;;;;;10.45;8.18;;;;;;;1.58;97.97;102323.50;5039590;28;20025;-94
2024/01/07 11:08:13;;;;;;;11.93;8.45;;;;;;;1.55;98.65;102318.97;5036007;28;20033;-95
2024/01/07 11:10:45;;;;;;;13.13;7.65;;;;;;;1.66;97.54;102325.84;5060393;28;20033;-94